Time;durP1;ratioP1;P1;durP2;ratioP2;P2;SDS_P1;SDS_P2;PMS_P1;PMS_P2;Temp;Humidity;BMP_temperature;BMP_pressure;BME280_temperature;BME280_humidity;BME280_pressure;Samples;Min_cycle;Max_cycle;Signal;HPM_P1;HPM_P2
2021/04/25 00:00:26;;;;;;;;;;;;;;;-144.99;68.75;52280.97;4726750;28;10000397;-62
2021/04/25 00:02:51;;;;;;;;;;;;;;;-144.99;68.75;52248.34;5078712;28;19989;-61
2021/04/25 00:05:18;;;;;;;;;;;;;;;-144.99;68.78;52258.53;5082706;28;20171;-61
2021/04/25 00:07:44;;;;;;;;;;;;;;;-144.99;68.89;52264.66;5083346;28;19976;-61
2021/04/25 00:10:11;;;;;;;;;;;;;;;-144.99;68.88;52291.16;5079600;28;19973;-63
2021/04/25 00:12:40;;;;;;;;;;;;;;;-144.99;69.11;52278.91;5083112;28;19952;-62
2021/04/25 00:15:06;;;;;;;;;;;;;;;-144.99;69.12;52278.91;5085043;28;19952;-62
2021/04/25 00:17:32;;;;;;;;;;;;;;;-144.99;69.33;52299.31;5086709;28;19946;-62
2021/04/25 00:19:58;;;;;;;;;;;;;;;-144.99;69.53;52256.50;5089702;28;20473;-62
2021/04/25 00:22:24;;;;;;;;;;;;;;;-144.99;69.80;52260.56;5061951;22;20013;-61
2021/04/25 00:24:50;;;;;;;;;;;;;;;-144.99;69.62;52232.03;5027748;28;19950;-61
2021/04/25 00:27:21;;;;;;;;;;;;;;;-144.99;69.77;52260.56;5027853;28;19970;-61
2021/04/25 00:29:48;;;;;;;;;;;;;;;-144.99;69.83;52276.88;5006396;28;19988;-61
2021/04/25 00:32:17;;;;;;;;;;;;;;;-144.99;69.92;52252.44;5007966;28;19956;-61
2021/04/25 00:34:42;;;;;;;;;;;;;;;-144.99;69.94;52293.19;5009297;28;19955;-61
2021/04/25 00:37:08;;;;;;;;;;;;;;;-144.99;70.17;52256.50;5008713;28;20394;-62
2021/04/25 00:39:34;;;;;;;;;;;;;;;-144.99;70.05;52268.72;5009500;28;19974;-60
2021/04/25 00:42:00;;;;;;;;;;;;;;;-144.99;70.33;52272.81;5009315;28;19952;-60
2021/04/25 00:44:26;;;;;;;;;;;;;;;-144.99;70.23;52264.66;5010550;28;19952;-61
2021/04/25 00:46:55;;;;;;;;;;;;;;;-144.99;70.26;52215.75;5010896;28;20380;-60
2021/04/25 00:49:24;;;;;;;;;;;;;;;-144.99;70.42;52262.63;5011584;28;19971;-60
2021/04/25 00:51:50;;;;;;;;;;;;;;;-144.99;70.60;52268.72;5011507;28;19949;-61
2021/04/25 00:54:16;;;;;;;;;;;;;;;-144.99;70.75;52285.03;5011216;28;20297;-61
2021/04/25 00:56:42;;;;;;;;;;;;;;;-144.99;70.55;52301.34;5011041;28;20011;-60
2021/04/25 00:59:07;;;;;;;;;;;;;;;-144.99;70.71;52283.00;5010877;28;20000;-59
2021/04/25 01:01:36;;;;;;;;;;;;;;;-144.99;70.92;52289.13;5010871;28;19949;-59
2021/04/25 01:04:03;;;;;;;;;;;;;;;-144.99;70.85;52223.88;5012049;28;19956;-62
2021/04/25 01:06:29;;;;;;;;;;;;;;;-144.99;70.98;52276.88;5019469;28;19953;-62
2021/04/25 01:08:57;;;;;;;;;;;;;;;-144.99;71.05;52285.03;5010618;28;19962;-62
2021/04/25 01:11:23;;;;;;;;;;;;;;;-144.99;71.12;52285.03;5007867;28;19947;-60
2021/04/25 01:13:50;;;;;;;;;;;;;;;-144.99;71.12;52268.72;5008867;28;19951;-61
2021/04/25 01:16:19;;;;;;;;;;;;;;;-144.99;71.12;52260.56;5007026;28;19978;-61
2021/04/25 01:18:48;;;;;;;;;;;;;;;-144.99;71.33;52272.81;5006883;28;19965;-61
2021/04/25 01:21:14;;;;;;;;;;;;;;;-144.99;71.58;52252.44;5008897;28;19960;-60
2021/04/25 01:23:40;;;;;;;;;;;;;;;-144.99;71.39;52242.22;5008120;28;20446;-60
2021/04/25 01:26:06;;;;;;;;;;;;;;;-144.99;71.50;52301.34;5006322;28;19950;-59
2021/04/25 01:28:33;;;;;;;;;;;;;;;-144.99;71.39;52264.66;5006525;28;20064;-60
2021/04/25 01:30:59;;;;;;;;;;;;;;;-144.99;71.49;52289.13;5010118;28;19949;-59
2021/04/25 01:33:27;;;;;;;;;;;;;;;-144.99;71.27;52272.81;5009065;28;19982;-60
2021/04/25 01:35:53;;;;;;;;;;;;;;;-144.99;71.36;52289.13;5010300;28;20437;-61
2021/04/25 01:38:21;;;;;;;;;;;;;;;-144.99;71.40;52272.81;5010019;28;19981;-59
2021/04/25 01:40:46;;;;;;;;;;;;;;;-144.99;71.87;52276.88;5006513;28;19954;-59
2021/04/25 01:43:12;;;;;;;;;;;;;;;-144.99;71.88;52272.81;5011264;28;19984;-58
2021/04/25 01:45:38;;;;;;;;;;;;;;;-144.99;71.53;52276.88;5011909;28;19952;-60
2021/04/25 01:48:05;;;;;;;;;;;;;;;-144.99;71.56;52262.63;5007725;28;19965;-63
2021/04/25 01:50:31;;;;;;;;;;;;;;;-144.99;71.70;52289.13;5005538;28;20001;-59
2021/04/25 01:53:00;;;;;;;;;;;;;;;-144.99;71.73;52268.72;5005431;28;19963;-62
2021/04/25 01:55:32;;;;;;;;;;;;;;;-144.99;71.56;52264.66;5009992;28;20363;-61
2021/04/25 01:57:59;;;;;;;;;;;;;;;-144.99;71.75;52272.81;5005951;28;20604;-59
2021/04/25 02:00:30;;;;;;;;;;;;;;;-144.99;71.88;52246.31;5006609;28;19961;-59
2021/04/25 02:02:56;;;;;;;;;;;;;;;-144.99;71.96;52354.34;5007190;28;19958;-59
2021/04/25 02:05:25;;;;;;;;;;;;;;;-144.99;72.10;52307.47;5005435;28;20008;-60
2021/04/25 02:07:51;;;;;;;;;;;;;;;-144.99;71.88;52289.13;5009696;28;20016;-60
2021/04/25 02:10:17;;;;;;;;;;;;;;;-144.99;72.00;52256.50;5011442;28;19978;-62
2021/04/25 02:12:44;;;;;;;;;;;;;;;-144.99;72.09;52227.97;5010613;28;19947;-59
2021/04/25 02:15:14;;;;;;;;;;;;;;;-144.99;72.14;52305.41;5010827;28;20026;-59
2021/04/25 02:17:45;;;;;;;;;;;;;;;-144.99;72.27;52256.50;5012698;28;19980;-58
2021/04/25 02:20:15;;;;;;;;;;;;;;;-144.99;72.30;52260.56;5008409;28;20410;-59
2021/04/25 02:22:40;;;;;;;;;;;;;;;-144.99;72.36;52280.97;5010042;28;19952;-59
2021/04/25 02:25:08;;;;;;;;;;;;;;;-144.99;72.51;52276.88;5016897;28;19951;-58
2021/04/25 02:27:34;;;;;;;;;;;;;;;-144.99;72.60;52276.88;5005336;28;20468;-60
2021/04/25 02:30:01;;;;;;;;;;;;;;;-144.99;72.51;52309.50;5006075;28;20606;-60
2021/04/25 02:32:27;;;;;;;;;;;;;;;-144.99;72.53;52272.81;5006840;28;19956;-61
2021/04/25 02:34:55;;;;;;;;;;;;;;;-144.99;72.37;52256.50;5006001;28;19950;-60
2021/04/25 02:37:23;;;;;;;;;;;;;;;-144.99;72.43;52260.56;5006253;28;19977;-64
2021/04/25 02:39:52;;;;;;;;;;;;;;;-144.99;72.41;52309.50;5006801;28;20006;-64
2021/04/25 02:42:18;;;;;;;;;;;;;;;-144.99;72.40;52301.34;5006187;28;19949;-64
2021/04/25 02:44:44;;;;;;;;;;;;;;;-144.99;72.35;52236.13;5007830;28;19994;-63
2021/04/25 02:47:12;;;;;;;;;;;;;;;-144.99;72.37;52272.81;5007481;28;19955;-58
2021/04/25 02:49:38;;;;;;;;;;;;;;;-144.99;72.17;52280.97;5003596;28;19960;-58
2021/04/25 02:52:04;;;;;;;;;;;;;;;-144.99;72.22;52272.81;5005438;28;19982;-60
2021/04/25 02:54:33;;;;;;;;;;;;;;;-144.99;72.29;52272.81;5005603;28;19947;-59
2021/04/25 02:57:01;;;;;;;;;;;;;;;-144.99;72.37;52289.13;5005617;28;20346;-60
2021/04/25 02:59:27;;;;;;;;;;;;;;;-144.99;72.28;52268.72;5006452;28;19970;-59
2021/04/25 03:01:56;;;;;;;;;;;;;;;-144.99;72.27;52264.66;5005538;28;20323;-59
2021/04/25 03:04:23;;;;;;;;;;;;;;;-144.99;72.45;52254.47;5005356;28;19957;-59
2021/04/25 03:06:49;;;;;;;;;;;;;;;-144.99;72.49;52280.97;5007703;28;19949;-61
2021/04/25 03:09:14;;;;;;;;;;;;;;;-144.99;72.79;52256.50;5006464;28;19974;-59
2021/04/25 03:11:40;;;;;;;;;;;;;;;-144.99;72.56;52293.19;5004758;28;19964;-61
2021/04/25 03:14:06;;;;;;;;;;;;;;;-144.99;72.67;52272.81;5005663;28;19950;-61
2021/04/25 03:16:32;;;;;;;;;;;;;;;-144.99;72.86;52272.81;5005952;28;19996;-59
2021/04/25 03:18:58;;;;;;;;;;;;;;;-144.99;73.12;52268.72;5005672;28;20593;-61
2021/04/25 03:21:25;;;;;;;;;;;;;;;-144.99;73.11;52276.88;5007849;28;19975;-62
2021/04/25 03:23:51;;;;;;;;;;;;;;;-144.99;73.14;52252.44;5007459;28;19953;-62
2021/04/25 03:26:16;;;;;;;;;;;;;;;-144.99;73.42;52256.50;5005462;28;19954;-63
2021/04/25 03:28:48;;;;;;;;;;;;;;;-144.99;73.21;52227.97;5005056;28;20226;-59
2021/04/25 03:31:16;;;;;;;;;;;;;;;-144.99;73.50;52285.03;5005196;28;19958;-60
2021/04/25 03:33:45;;;;;;;;;;;;;;;-144.99;73.67;52268.72;5006367;28;19960;-62
2021/04/25 03:36:11;;;;;;;;;;;;;;;-144.99;73.56;52264.66;5004718;28;19964;-61
2021/04/25 03:38:40;;;;;;;;;;;;;;;-144.99;73.71;52285.03;5005769;28;19970;-59
2021/04/25 03:41:06;;;;;;;;;;;;;;;-144.99;74.18;52289.13;5005498;28;19951;-62
2021/04/25 03:43:32;;;;;;;;;;;;;;;-144.99;74.40;52256.50;5002140;28;19955;-59
2021/04/25 03:45:58;;;;;;;;;;;;;;;-144.99;74.30;52260.56;5006081;28;20030;-61
2021/04/25 03:48:27;;;;;;;;;;;;;;;-144.99;74.20;52234.09;5005567;28;20028;-61
2021/04/25 03:50:55;;;;;;;;;;;;;;;-144.99;74.05;52264.66;5005611;28;19953;-60
2021/04/25 03:53:21;;;;;;;;;;;;;;;-144.99;74.14;52270.78;5005904;28;19955;-62
2021/04/25 03:58:31;;;;;;;;;;;;;;;-144.99;74.73;52289.13;5004051;28;20501;-62
2021/04/25 04:00:57;;;;;;;;;;;;;;;-144.99;74.91;52272.81;5003321;28;19950;-62
2021/04/25 04:03:23;;;;;;;;;;;;;;;-144.99;75.03;52272.81;5005295;28;19953;-61
2021/04/25 04:05:51;;;;;;;;;;;;;;;-144.99;74.89;52280.97;5007984;28;19956;-61
2021/04/25 04:08:20;;;;;;;;;;;;;;;-144.99;75.06;52285.03;5005152;28;20071;-61
2021/04/25 04:10:46;;;;;;;;;;;;;;;-144.99;75.06;52287.06;5002187;28;19944;-61
2021/04/25 04:13:12;;;;;;;;;;;;;;;-144.99;75.25;52268.72;5007495;28;19949;-61
2021/04/25 04:15:38;;;;;;;;;;;;;;;-144.99;75.22;52268.72;5008076;28;19980;-61
2021/04/25 04:18:05;;;;;;;;;;;;;;;-144.99;75.23;52260.56;5009996;28;20498;-61
2021/04/25 04:20:30;;;;;;;;;;;;;;;-144.99;75.49;52256.50;5006272;28;19949;-58
2021/04/25 04:22:59;;;;;;;;;;;;;;;-144.99;75.48;52283.00;5011085;28;20337;-60
2021/04/25 04:25:28;;;;;;;;;;;;;;;-144.99;75.47;52248.34;5007356;28;20466;-59
2021/04/25 04:27:56;;;;;;;;;;;;;;;-144.99;75.60;52285.03;5008262;28;19962;-59
2021/04/25 04:30:23;;;;;;;;;;;;;;;-144.99;75.42;52260.56;5008493;28;19958;-59
2021/04/25 04:32:49;;;;;;;;;;;;;;;-144.99;75.30;52252.44;5007873;28;19953;-58
2021/04/25 04:35:17;;;;;;;;;;;;;;;-144.99;75.46;52272.81;5007870;28;19990;-58
2021/04/25 04:37:43;;;;;;;;;;;;;;;-144.99;75.19;52223.88;5008515;28;19966;-57
2021/04/25 04:40:10;;;;;;;;;;;;;;;-144.99;75.22;52280.97;5008543;28;20019;-59
2021/04/25 04:42:41;;;;;;;;;;;;;;;-144.99;75.25;52280.97;5008751;28;20029;-57
2021/04/25 04:45:13;;;;;;;;;;;;;;;-144.99;75.20;52297.25;5009728;28;19951;-57
2021/04/25 04:47:44;;;;;;;;;;;;;;;-144.99;75.17;52227.97;5007541;28;19954;-63
2021/04/25 04:50:13;;;;;;;;;;;;;;;-144.99;75.29;52268.72;5005212;28;19948;-63
2021/04/25 04:52:39;;;;;;;;;;;;;;;-144.99;75.19;52244.28;5012060;28;19954;-63
2021/04/25 04:55:05;;;;;;;;;;;;;;;-144.99;75.12;52225.94;5012113;28;19951;-66
2021/04/25 04:57:31;;;;;;;;;;;;;;;-144.99;75.00;52236.13;5010590;28;20012;-65
2021/04/25 04:59:57;;;;;;;;;;;;;;;-144.99;74.74;52283.00;5011591;28;19951;-65
2021/04/25 05:02:26;;;;;;;;;;;;;;;-144.99;74.66;52230.00;5011098;28;19957;-66
2021/04/25 05:04:52;;;;;;;;;;;;;;;-144.99;74.52;52238.16;5009235;28;19973;-65
2021/04/25 05:07:22;;;;;;;;;;;;;;;-144.99;74.43;52268.72;5012678;28;20027;-65
2021/04/25 05:09:50;;;;;;;;;;;;;;;-144.99;74.32;52266.69;5012399;28;19995;-66
2021/04/25 05:12:16;;;;;;;;;;;;;;;-144.99;74.46;52260.56;5008734;28;20479;-65
2021/04/25 05:14:42;;;;;;;;;;;;;;;-144.99;74.39;52248.34;5011090;28;19951;-61
2021/04/25 05:17:07;;;;;;;;;;;;;;;-144.99;74.55;52289.13;5013787;28;19965;-60
2021/04/25 05:19:33;;;;;;;;;;;;;;;-144.99;74.44;52248.34;5013762;28;20495;-61
2021/04/25 05:22:06;;;;;;;;;;;;;;;-144.99;74.36;52256.50;5014035;28;20387;-60
2021/04/25 05:24:31;;;;;;;;;;;;;;;-144.99;74.17;52264.66;5009700;28;19955;-61
2021/04/25 05:26:57;;;;;;;;;;;;;;;-144.99;73.80;52256.50;5007786;28;20446;-61
2021/04/25 05:29:23;;;;;;;;;;;;;;;-144.99;73.69;52252.44;5007003;28;20325;-60
2021/04/25 05:31:49;;;;;;;;;;;;;;;-144.99;73.64;52280.97;5006962;28;20344;-60
2021/04/25 05:34:18;;;;;;;;;;;;;;;-144.99;73.76;52236.13;5007470;28;19948;-61
2021/04/25 05:36:45;;;;;;;;;;;;;;;-144.99;73.68;52270.78;5007376;28;19965;-61
2021/04/25 05:39:12;;;;;;;;;;;;;;;-144.99;73.73;52244.28;5006543;28;19973;-64
2021/04/25 05:41:38;;;;;;;;;;;;;;;-144.99;73.61;52246.31;5007643;28;19952;-63
2021/04/25 05:44:04;;;;;;;;;;;;;;;-144.99;73.54;52242.22;5008024;28;19960;-63
2021/04/25 05:46:32;;;;;;;;;;;;;;;-144.99;73.38;52260.56;5007145;28;20044;-64
2021/04/25 05:48:58;;;;;;;;;;;;;;;-144.99;73.24;52254.47;5008327;28;19971;-61
2021/04/25 05:51:27;;;;;;;;;;;;;;;-144.99;73.03;52199.44;5006274;28;20009;-63
2021/04/25 05:53:53;;;;;;;;;;;;;;;-144.99;72.80;52252.44;5006742;28;19955;-59
2021/04/25 05:56:22;;;;;;;;;;;;;;;-144.99;72.78;52244.28;5006454;28;20017;-59
2021/04/25 05:58:51;;;;;;;;;;;;;;;-144.99;72.60;52248.34;5007136;28;19968;-58
2021/04/25 06:01:20;;;;;;;;;;;;;;;-144.99;72.46;52227.97;5007096;28;19961;-61
2021/04/25 06:03:48;;;;;;;;;;;;;;;-144.99;71.64;52232.03;5007497;28;19947;-59
2021/04/25 06:06:14;;;;;;;;;;;;;;;-144.99;71.57;52260.56;5010508;28;20001;-60
2021/04/25 06:08:40;;;;;;;;;;;;;;;-144.99;70.63;52223.88;5007100;28;19974;-58
2021/04/25 06:11:06;;;;;;;;;;;;;;;-144.99;70.36;52236.13;5008056;28;20398;-59
2021/04/25 06:13:36;;;;;;;;;;;;;;;-144.99;70.28;52207.59;5009843;28;19951;-59
2021/04/25 06:16:04;;;;;;;;;;;;;;;-144.99;70.41;52252.44;5009991;28;19964;-59
2021/04/25 06:18:30;;;;;;;;;;;;;;;-144.99;70.52;52252.44;4999113;28;19968;-59
2021/04/25 06:20:59;;;;;;;;;;;;;;;-144.99;70.49;52264.66;5008008;28;19953;-59
2021/04/25 06:23:27;;;;;;;;;;;;;;;-144.99;69.94;52227.97;5013104;28;19961;-60
2021/04/25 06:25:56;;;;;;;;;;;;;;;-144.99;69.86;52199.44;5010536;28;19950;-58
2021/04/25 06:28:21;;;;;;;;;;;;;;;-144.99;69.58;52227.97;5011815;28;20437;-59
2021/04/25 06:30:48;;;;;;;;;;;;;;;-144.99;69.32;52232.03;5022439;22;19978;-60
2021/04/25 06:33:17;;;;;;;;;;;;;;;-144.99;69.13;52246.31;5002387;28;20447;-59
2021/04/25 06:35:43;;;;;;;;;;;;;;;-144.99;69.18;52172.94;5006067;28;19989;-59
2021/04/25 06:38:11;;;;;;;;;;;;;;;-144.99;68.96;52248.34;5006793;28;20024;-59
2021/04/25 06:40:37;;;;;;;;;;;;;;;-144.99;68.41;52232.03;5007446;28;20299;-60
2021/04/25 06:43:06;;;;;;;;;;;;;;;-144.99;67.90;52211.66;5010609;28;19946;-60
2021/04/25 06:45:32;;;;;;;;;;;;;;;-144.99;67.48;52227.97;5005692;28;19952;-60
2021/04/25 06:47:59;;;;;;;;;;;;;;;-144.99;66.45;52215.75;5001021;28;19975;-59
2021/04/25 06:50:25;;;;;;;;;;;;;;;-144.99;65.66;52207.59;5002447;28;20443;-60
2021/04/25 06:52:54;;;;;;;;;;;;;;;-144.99;65.00;52183.13;5005138;28;19956;-60
2021/04/25 06:55:23;;;;;;;;;;;;;;;-144.99;63.70;52205.53;5007814;28;20014;-59
2021/04/25 06:57:55;;;;;;;;;;;;;;;-144.99;63.04;52256.50;5009119;28;19966;-60
2021/04/25 07:00:23;;;;;;;;;;;;;;;-144.99;62.47;52195.34;5007342;28;19964;-60
2021/04/25 07:02:48;;;;;;;;;;;;;;;-144.99;61.96;52225.94;5006853;28;19996;-69
2021/04/25 07:05:15;;;;;;;;;;;;;;;-144.99;61.39;52207.59;5005959;28;20328;-69
2021/04/25 07:07:44;;;;;;;;;;;;;;;-144.99;60.76;52195.34;5006531;28;20416;-65
2021/04/25 07:10:11;;;;;;;;;;;;;;;-144.99;60.39;52227.97;5009005;28;19989;-63
2021/04/25 07:12:39;;;;;;;;;;;;;;;-144.99;59.29;52183.13;5007700;28;19999;-68
2021/04/25 07:15:07;;;;;;;;;;;;;;;-144.99;58.30;52211.66;5005629;28;19947;-65
2021/04/25 07:17:33;;;;;;;;;;;;;;;-144.99;57.80;52207.59;5003261;28;20346;-66
2021/04/25 07:19:59;;;;;;;;;;;;;;;-144.99;58.02;52187.19;5001463;28;19959;-66
2021/04/25 07:22:28;;;;;;;;;;;;;;;-144.99;57.95;52195.34;5004108;28;20024;-66
2021/04/25 07:24:54;;;;;;;;;;;;;;;-144.99;57.94;52174.97;5011048;28;20477;-66
2021/04/25 07:27:23;;;;;;;;;;;;;;;-144.99;56.74;52211.66;5006704;28;20000;-66
2021/04/25 07:29:49;;;;;;;;;;;;;;;-144.99;56.46;52207.59;5008413;28;19986;-66
2021/04/25 07:32:18;;;;;;;;;;;;;;;-144.99;56.51;52187.19;5008679;28;20001;-66
2021/04/25 07:34:46;;;;;;;;;;;;;;;-144.99;56.39;52166.81;5013936;28;20098;-65
2021/04/25 07:37:15;;;;;;;;;;;;;;;-144.99;55.20;52162.75;4999077;28;19967;-65
2021/04/25 07:39:42;;;;;;;;;;;;;;;-144.99;53.31;52158.66;5004614;28;19970;-65
2021/04/25 07:42:08;;;;;;;;;;;;;;;-144.99;52.36;52179.06;5010945;28;19957;-66
2021/04/25 07:44:40;;;;;;;;;;;;;;;-144.99;51.93;52179.06;5012860;28;20078;-66
2021/04/25 07:47:06;;;;;;;;;;;;;;;-144.99;50.63;52164.78;5007271;28;19961;-66
2021/04/25 07:49:35;;;;;;;;;;;;;;;-144.99;52.19;52156.63;5010769;28;20014;-66
2021/04/25 07:52:01;;;;;;;;;;;;;;;-144.99;50.35;52193.31;5009109;28;19948;-66
2021/04/25 07:54:27;;;;;;;;;;;;;;;-144.99;49.45;52199.44;5010072;28;19964;-66
2021/04/25 07:56:57;;;;;;;;;;;;;;;-144.99;49.24;52187.19;5010057;28;19973;-67
2021/04/25 07:59:26;;;;;;;;;;;;;;;-144.99;48.90;52179.06;5008397;28;20006;-66
2021/04/25 08:01:55;;;;;;;;;;;;;;;-144.99;48.52;52146.44;5007858;28;20029;-66
2021/04/25 08:04:21;;;;;;;;;;;;;;;-144.99;46.52;52146.44;5009378;28;19960;-67
2021/04/25 08:06:47;;;;;;;;;;;;;;;-144.99;45.93;52140.31;5009813;28;19954;-67
2021/04/25 08:09:16;;;;;;;;;;;;;;;-144.99;45.84;52172.94;5010555;28;19970;-66
2021/04/25 08:11:42;;;;;;;;;;;;;;;-144.99;46.12;52158.66;5012066;28;19967;-68
2021/04/25 08:14:08;;;;;;;;;;;;;;;-144.99;46.34;52150.53;5020130;28;19974;-65
2021/04/25 08:16:34;;;;;;;;;;;;;;;-144.99;45.03;52170.91;5010201;28;20380;-67
2021/04/25 08:19:00;;;;;;;;;;;;;;;-144.99;44.81;52179.06;5010192;28;19970;-67
2021/04/25 08:21:32;;;;;;;;;;;;;;;-144.99;44.19;52142.38;5019158;28;19956;-66
2021/04/25 08:23:58;;;;;;;;;;;;;;;-144.99;41.40;52179.06;4999698;28;20053;-66
2021/04/25 08:26:24;;;;;;;;;;;;;;;-144.99;40.12;52138.28;5011306;28;20954;-66
2021/04/25 08:28:53;;;;;;;;;;;;;;;-144.99;40.02;52162.75;5018976;28;20017;-67
2021/04/25 08:31:22;;;;;;;;;;;;;;;-144.99;39.82;52117.91;5002442;28;19971;-68
2021/04/25 08:33:51;;;;;;;;;;;;;;;-144.99;39.09;52140.31;5006203;28;20007;-65
2021/04/25 08:36:17;;;;;;;;;;;;;;;-144.99;37.82;52140.31;5022178;28;19976;-67
2021/04/25 08:38:43;;;;;;;;;;;;;;;-144.99;37.52;52146.44;5021985;28;19996;-66
2021/04/25 08:41:13;;;;;;;;;;;;;;;-144.99;36.25;52115.88;5022830;28;20378;-69
2021/04/25 08:43:41;;;;;;;;;;;;;;;-144.99;36.31;52150.53;5023696;28;19954;-67
2021/04/25 08:46:07;;;;;;;;;;;;;;;-144.99;37.03;52146.44;5013568;28;20487;-66
2021/04/25 08:48:35;;;;;;;;;;;;;;;-144.99;37.01;52154.59;4994391;28;19983;-67
2021/04/25 08:51:01;;;;;;;;;;;;;;;-144.99;36.47;52146.44;5002110;28;19965;-66
2021/04/25 08:53:27;;;;;;;;;;;;;;;-144.99;36.27;52187.19;5014437;28;19962;-64
2021/04/25 08:55:53;;;;;;;;;;;;;;;-144.99;36.85;52130.13;5016343;28;20008;-64
2021/04/25 08:58:20;;;;;;;;;;;;;;;-144.99;38.01;52203.50;5002373;28;20027;-60
2021/04/25 09:00:46;;;;;;;;;;;;;;;-144.99;38.36;52181.09;5003937;28;19959;-64
2021/04/25 09:03:14;;;;;;;;;;;;;;;-144.99;38.52;52162.75;5006065;28;20066;-66
2021/04/25 09:05:40;;;;;;;;;;;;;;;-144.99;39.14;52146.44;5007749;28;19950;-66
2021/04/25 09:08:06;;;;;;;;;;;;;;;-144.99;39.66;52170.91;5013756;28;19980;-67
2021/04/25 09:10:39;;;;;;;;;;;;;;;-144.99;39.61;52195.34;4993320;28;19972;-65
2021/04/25 09:13:16;;;;;;;;;;;;;;;-144.99;38.89;52185.16;5013918;28;20387;-66
2021/04/25 09:15:44;;;;;;;;;;;;;;;-144.99;38.51;52158.66;5014223;28;19960;-64
2021/04/25 09:18:10;;;;;;;;;;;;;;;-144.99;38.94;52181.09;4995031;28;19972;-64
2021/04/25 09:20:50;;;;;;;;;;;;;;;-144.99;38.82;52211.66;4999490;28;19962;-62
2021/04/25 09:23:35;;;;;;;;;;;;;;;-144.99;38.71;52164.78;5013020;28;20344;-68
2021/04/25 09:26:11;;;;;;;;;;;;;;;-144.99;38.64;52156.63;5001834;28;19967;-68
2021/04/25 09:28:41;;;;;;;;;;;;;;;-144.99;37.30;52195.34;4992113;28;20036;-57
2021/04/25 09:31:08;;;;;;;;;;;;;;;-144.99;36.83;52195.34;4998423;28;20477;-57
2021/04/25 09:33:49;;;;;;;;;;;;;;;-144.99;36.90;52174.97;5012400;28;19968;-59
2021/04/25 09:36:21;;;;;;;;;;;;;;;-144.99;36.64;52162.75;5001880;28;19983;-57
2021/04/25 09:38:47;;;;;;;;;;;;;;;-144.99;35.99;52150.53;5017851;28;20089;-61
2021/04/25 09:41:23;;;;;;;;;;;;;;;-144.99;35.27;52166.81;5003252;28;19981;-62
2021/04/25 09:43:49;;;;;;;;;;;;;;;-144.99;34.30;52142.38;5022213;28;19988;-63
2021/04/25 09:46:15;;;;;;;;;;;;;;;-144.99;34.74;52136.25;5008667;28;19986;-63
2021/04/25 09:48:43;;;;;;;;;;;;;;;-144.99;33.77;52107.72;4993039;28;20001;-64
2021/04/25 09:51:10;;;;;;;;;;;;;;;-144.99;33.37;52134.22;4995851;28;20467;-62
2021/04/25 09:53:37;;;;;;;;;;;;;;;-144.99;33.37;52126.06;5009817;28;19989;-63
2021/04/25 09:56:07;;;;;;;;;;;;;;;-144.99;33.51;52170.91;5009080;28;19974;-62
2021/04/25 09:58:50;;;;;;;;;;;;;;;-144.99;33.80;52146.44;5010894;28;19989;-65
2021/04/25 10:01:24;;;;;;;;;;;;;;;-144.99;33.83;52166.81;4995544;28;19985;-66
2021/04/25 10:03:50;;;;;;;;;;;;;;;-144.99;33.71;52130.13;5003737;28;19981;-63
2021/04/25 10:06:18;;;;;;;;;;;;;;;-144.99;33.54;52085.31;5013337;28;20005;-63
2021/04/25 10:08:49;;;;;;;;;;;;;;;-144.99;32.29;52073.06;5015574;28;20123;-63
2021/04/25 10:11:16;;;;;;;;;;;;;;;-144.99;32.14;52077.16;5011491;28;20029;-64
2021/04/25 10:13:45;;;;;;;;;;;;;;;-144.99;32.02;52083.25;5000506;28;19981;-63
2021/04/25 10:16:13;;;;;;;;;;;;;;;-144.99;30.89;52126.06;5018039;28;20319;-64
2021/04/25 10:18:39;;;;;;;;;;;;;;;-144.99;30.94;52081.22;5001014;28;20476;-64
2021/04/25 10:21:09;;;;;;;;;;;;;;;-144.99;30.21;52056.78;5011849;28;19974;-63
2021/04/25 10:23:35;;;;;;;;;;;;;;;-144.99;30.00;52048.63;5008794;28;20019;-63
2021/04/25 10:26:08;;;;;;;;;;;;;;;-144.99;29.68;52064.91;5020498;28;19978;-67
2021/04/25 10:28:40;;;;;;;;;;;;;;;-144.99;29.92;52105.69;4999761;28;20521;-63
2021/04/25 10:31:12;;;;;;;;;;;;;;;-144.99;29.72;52162.75;5015687;28;19977;-63
2021/04/25 10:33:58;;;;;;;;;;;;;;;-144.99;30.03;52130.13;5000847;28;19978;-60
2021/04/25 10:36:39;;;;;;;;;;;;;;;-144.99;29.72;52140.31;4997922;28;20041;-59
2021/04/25 10:39:23;;;;;;;;;;;;;;;-144.99;29.65;52117.91;5008269;28;20471;-58
2021/04/25 10:41:49;;;;;;;;;;;;;;;-144.99;29.28;52113.84;5024634;28;20013;-57
2021/04/25 10:44:15;;;;;;;;;;;;;;;-144.99;28.69;51997.66;5009939;28;20375;-64
2021/04/25 10:47:08;;;;;;;;;;;;;;;-144.99;28.52;51967.09;5000958;28;19978;-65
2021/04/25 10:49:36;;;;;;;;;;;;;;;-144.99;28.32;51946.72;4999981;28;20004;-63
2021/04/25 10:52:21;;;;;;;;;;;;;;;-144.99;28.74;51930.41;5006325;28;20242;-64
2021/04/25 10:55:10;;;;;;;;;;;;;;;-144.99;27.79;52095.50;4999764;28;19982;-65
2021/04/25 10:57:55;;;;;;;;;;;;;;;-144.99;27.67;52105.69;5001810;28;19995;-64
2021/04/25 11:00:48;;;;;;;;;;;;;;;-144.99;27.71;52162.75;5011818;28;20025;-66
2021/04/25 11:03:35;;;;;;;;;;;;;;;-144.99;27.85;52032.31;5004929;28;19979;-67
2021/04/25 11:06:05;;;;;;;;;;;;;;;-144.99;27.40;51977.28;5011425;28;20115;-65
2021/04/25 11:08:39;;;;;;;;;;;;;;;-144.99;27.31;51958.94;5001804;28;20475;-65
2021/04/25 11:11:07;;;;;;;;;;;;;;;-144.99;26.64;51946.72;5008755;28;19988;-66
2021/04/25 11:13:44;;;;;;;;;;;;;;;-144.99;25.83;51934.50;5013373;28;19982;-64
2021/04/25 11:16:24;;;;;;;;;;;;;;;-144.99;26.06;51950.78;5005793;28;20374;-65
2021/04/25 11:18:52;;;;;;;;;;;;;;;-144.99;26.07;51893.72;5010168;28;19998;-64
2021/04/25 11:21:49;;;;;;;;;;;;;;;-144.99;25.13;51926.34;5006317;28;19978;-69
2021/04/25 11:24:39;;;;;;;;;;;;;;;-144.99;25.50;51918.19;5009421;28;20069;-67
2021/04/25 11:27:08;;;;;;;;;;;;;;;-144.99;25.16;51889.66;4995241;28;19986;-64
2021/04/25 11:30:04;;;;;;;;;;;;;;;-144.99;24.42;51914.09;5000437;28;20002;-66
2021/04/25 11:32:42;;;;;;;;;;;;;;;-144.99;25.08;51897.81;4994932;28;19989;-66
2021/04/25 11:35:17;;;;;;;;;;;;;;;-144.99;24.59;52020.09;5011474;28;19974;-65
2021/04/25 11:37:47;;;;;;;;;;;;;;;-144.99;24.69;51914.09;5012088;28;20008;-66
2021/04/25 11:40:30;;;;;;;;;;;;;;;-144.99;25.23;51930.41;5018462;28;19977;-67
2021/04/25 11:42:56;;;;;;;;;;;;;;;-144.99;24.69;51922.25;5020492;28;19973;-67
2021/04/25 11:45:27;;;;;;;;;;;;;;;-144.99;24.07;51934.50;5018450;28;19978;-63
2021/04/25 11:47:54;;;;;;;;;;;;;;;-144.99;24.83;52056.78;5006475;28;20411;-61
2021/04/25 11:50:20;;;;;;;;;;;;;;;-144.99;24.37;52069.00;4994429;28;20461;-63
2021/04/25 11:52:47;;;;;;;;;;;;;;;-144.99;24.00;52064.91;5009609;28;20303;-63
2021/04/25 11:55:14;;;;;;;;;;;;;;;-144.99;24.33;52085.31;5004763;28;19985;-63
2021/04/25 11:57:40;;;;;;;;;;;;;;;-144.99;23.96;52089.38;5005339;28;20253;-62
2021/04/25 12:00:14;;;;;;;;;;;;;;;-144.99;24.09;52115.88;5015670;28;19993;-63
2021/04/25 12:02:46;;;;;;;;;;;;;;;-144.99;23.74;52132.19;5008162;28;19978;-61
2021/04/25 12:05:13;;;;;;;;;;;;;;;-144.99;24.09;52119.94;5009621;28;19982;-61
2021/04/25 12:07:41;;;;;;;;;;;;;;;-144.99;23.79;52093.44;5007676;28;19981;-62
2021/04/25 12:10:16;;;;;;;;;;;;;;;-144.99;24.36;52101.59;5000135;28;20085;-60
2021/04/25 12:13:07;;;;;;;;;;;;;;;-144.99;25.12;52109.75;5001722;28;19977;-62
2021/04/25 12:15:38;;;;;;;;;;;;;;;-144.99;24.72;52073.06;5011334;28;19973;-61
2021/04/25 12:18:05;;;;;;;;;;;;;;;-144.99;24.99;52130.13;5013173;28;20001;-60
2021/04/25 12:20:31;;;;;;;;;;;;;;;-144.99;24.06;52121.97;5012984;28;19974;-62
2021/04/25 12:23:00;;;;;;;;;;;;;;;-144.99;24.53;52142.38;5006433;28;20400;-63
2021/04/25 12:25:35;;;;;;;;;;;;;;;-144.99;23.93;52121.97;5021295;28;19977;-61
2021/04/25 12:28:04;;;;;;;;;;;;;;;-144.99;24.23;52101.59;5018342;28;19992;-63
2021/04/25 12:30:30;;;;;;;;;;;;;;;-144.99;24.98;52093.44;5013176;28;19987;-62
2021/04/25 12:33:10;;;;;;;;;;;;;;;-144.99;24.07;52126.06;5001595;28;20268;-61
2021/04/25 12:35:36;;;;;;;;;;;;;;;-144.99;24.11;52136.25;5003424;28;20064;-62